IGO567 VOMM-VOTR
Flight info
| Callsign | IGO567 |
|---|---|
| Flight time | N/A |
| Altitude | 16000 |
| Route | MMV R457 TTR |
| Aircraft | A320/M-SDE3FGHIRWY/LB1 |
Departure
| Time | 2026-05-06 20:47 |
|---|---|
| Airport | Chennai International Airport (VOMM) |
Arrival
| Time | N/A |
|---|---|
| Airport | Tiruchirappalli International Airport (VOTR) |
| Time | Latitude | Longitude | Altitude | Speed | Heading |
|---|---|---|---|---|---|
| 2026-05-06 20:03 | 12.98475 | 80.16638 | 47 ft | 0 kts | 158° |
| 2026-05-06 20:07 | 12.98474 | 80.16638 | 56 ft | 0 kts | 158° |
| 2026-05-06 20:08 | 12.98475 | 80.16638 | 57 ft | 0 kts | 158° |
| 2026-05-06 20:31 | 12.98480 | 80.16636 | 55 ft | 2 kts | 156° |
| 2026-05-06 20:32 | 12.98495 | 80.16628 | 50 ft | 2 kts | 151° |
| 2026-05-06 20:32 | 12.98509 | 80.16619 | 53 ft | 2 kts | 141° |
| 2026-05-06 20:32 | 12.98521 | 80.16607 | 54 ft | 2 kts | 116° |
| 2026-05-06 20:32 | 12.98524 | 80.16591 | 50 ft | 2 kts | 78° |
| 2026-05-06 20:33 | 12.98521 | 80.16579 | 53 ft | 1 kts | 68° |
| 2026-05-06 20:33 | 12.98521 | 80.16578 | 53 ft | 0 kts | 68° |
| 2026-05-06 20:38 | 12.98523 | 80.16583 | 55 ft | 2 kts | 67° |
| 2026-05-06 20:38 | 12.98529 | 80.16599 | 49 ft | 3 kts | 67° |
| 2026-05-06 20:38 | 12.98541 | 80.16626 | 52 ft | 5 kts | 67° |
| 2026-05-06 20:38 | 12.98556 | 80.16665 | 51 ft | 7 kts | 68° |
| 2026-05-06 20:39 | 12.98575 | 80.16715 | 53 ft | 8 kts | 71° |
| 2026-05-06 20:39 | 12.98608 | 80.16766 | 54 ft | 9 kts | 23° |
| 2026-05-06 20:39 | 12.98669 | 80.16749 | 53 ft | 10 kts | 338° |
| 2026-05-06 20:39 | 12.98737 | 80.16729 | 53 ft | 9 kts | 11° |
| 2026-05-06 20:40 | 12.98773 | 80.16781 | 50 ft | 10 kts | 69° |
| 2026-05-06 20:40 | 12.98800 | 80.16853 | 54 ft | 12 kts | 69° |
| 2026-05-06 20:40 | 12.98831 | 80.16937 | 54 ft | 14 kts | 69° |
| 2026-05-06 20:40 | 12.98867 | 80.17032 | 53 ft | 15 kts | 67° |
| 2026-05-06 20:41 | 12.98907 | 80.17137 | 54 ft | 17 kts | 69° |
| 2026-05-06 20:41 | 12.98958 | 80.17247 | 52 ft | 17 kts | 54° |
| 2026-05-06 20:41 | 12.99005 | 80.17362 | 55 ft | 18 kts | 71° |
| 2026-05-06 20:41 | 12.99050 | 80.17487 | 53 ft | 20 kts | 67° |
| 2026-05-06 20:42 | 12.99103 | 80.17621 | 52 ft | 21 kts | 70° |
| 2026-05-06 20:42 | 12.99168 | 80.17697 | 55 ft | 11 kts | 359° |
| 2026-05-06 20:42 | 12.99216 | 80.17746 | 54 ft | 11 kts | 69° |
| 2026-05-06 20:42 | 12.99243 | 80.17821 | 55 ft | 12 kts | 69° |
| 2026-05-06 20:43 | 12.99275 | 80.17907 | 55 ft | 14 kts | 69° |
| 2026-05-06 20:43 | 12.99312 | 80.18005 | 54 ft | 15 kts | 68° |
| 2026-05-06 20:43 | 12.99353 | 80.18109 | 53 ft | 16 kts | 68° |
| 2026-05-06 20:43 | 12.99362 | 80.18223 | 58 ft | 17 kts | 84° |
| 2026-05-06 20:44 | 12.99428 | 80.18318 | 51 ft | 0 kts | 42° |
| 2026-05-06 20:44 | 12.99437 | 80.18327 | 50 ft | 3 kts | 42° |
| 2026-05-06 20:44 | 12.99460 | 80.18347 | 52 ft | 5 kts | 42° |
| 2026-05-06 20:45 | 12.99493 | 80.18378 | 52 ft | 7 kts | 42° |
| 2026-05-06 20:45 | 12.99535 | 80.18412 | 51 ft | 8 kts | 30° |
| 2026-05-06 20:45 | 12.99576 | 80.18401 | 53 ft | 4 kts | 276° |
| 2026-05-06 20:45 | 12.99566 | 80.18364 | 49 ft | 6 kts | 249° |
| 2026-05-06 20:46 | 12.99565 | 80.18361 | 49 ft | 0 kts | 249° |
| 2026-05-06 20:46 | 12.99514 | 80.18226 | 52 ft | 59 kts | 248° |
| 2026-05-06 20:46 | 12.99271 | 80.17580 | 51 ft | 131 kts | 249° |
| 2026-05-06 20:46 | 12.98874 | 80.16533 | 51 ft | 178 kts | 246° |
| 2026-05-06 20:47 | 12.98397 | 80.15267 | 133 ft | 201 kts | 244° |
| 2026-05-06 20:47 | 12.97772 | 80.13983 | 730 ft | 215 kts | 242° |
| 2026-05-06 20:47 | 12.97060 | 80.12457 | 1116 ft | 254 kts | 248° |
| 2026-05-06 20:47 | 12.96629 | 80.11175 | 1413 ft | 280 kts | 251° |